sensor_id;sensor_type;location;lat;lon;timestamp;P1;durP1;ratioP1;P2;durP2;ratioP2
16385;SDS011;8302;51.154;4.456;2022-09-09T00:00:19;2.03;;;1.00;;
16385;SDS011;8302;51.154;4.456;2022-09-09T00:02:49;1.73;;;1.10;;
16385;SDS011;8302;51.154;4.456;2022-09-09T00:05:25;1.65;;;0.98;;
16385;SDS011;8302;51.154;4.456;2022-09-09T00:07:55;1.88;;;0.95;;
16385;SDS011;8302;51.154;4.456;2022-09-09T00:10:26;3.53;;;1.02;;
16385;SDS011;8302;51.154;4.456;2022-09-09T00:12:57;3.63;;;1.52;;
16385;SDS011;8302;51.154;4.456;2022-09-09T00:15:27;2.58;;;1.10;;
16385;SDS011;8302;51.154;4.456;2022-09-09T00:17:58;2.72;;;1.02;;
16385;SDS011;8302;51.154;4.456;2022-09-09T00:20:32;2.22;;;1.00;;
16385;SDS011;8302;51.154;4.456;2022-09-09T00:23:04;2.50;;;1.25;;
16385;SDS011;8302;51.154;4.456;2022-09-09T00:25:34;3.72;;;0.95;;
16385;SDS011;8302;51.154;4.456;2022-09-09T00:28:07;4.57;;;1.13;;
16385;SDS011;8302;51.154;4.456;2022-09-09T00:30:38;2.00;;;1.08;;
16385;SDS011;8302;51.154;4.456;2022-09-09T00:33:09;2.92;;;0.82;;
16385;SDS011;8302;51.154;4.456;2022-09-09T00:35:41;1.92;;;0.90;;
16385;SDS011;8302;51.154;4.456;2022-09-09T00:38:10;5.30;;;1.02;;
16385;SDS011;8302;51.154;4.456;2022-09-09T00:40:41;2.28;;;0.98;;
16385;SDS011;8302;51.154;4.456;2022-09-09T00:43:18;5.38;;;1.30;;
16385;SDS011;8302;51.154;4.456;2022-09-09T00:46:01;1.30;;;1.00;;
16385;SDS011;8302;51.154;4.456;2022-09-09T00:48:34;2.30;;;1.02;;
16385;SDS011;8302;51.154;4.456;2022-09-09T00:51:07;2.22;;;0.80;;
16385;SDS011;8302;51.154;4.456;2022-09-09T00:53:39;2.28;;;0.90;;
16385;SDS011;8302;51.154;4.456;2022-09-09T00:56:12;2.58;;;0.90;;
16385;SDS011;8302;51.154;4.456;2022-09-09T00:58:42;3.88;;;1.00;;
16385;SDS011;8302;51.154;4.456;2022-09-09T01:01:10;5.97;;;1.20;;
16385;SDS011;8302;51.154;4.456;2022-09-09T01:03:40;1.50;;;1.30;;
16385;SDS011;8302;51.154;4.456;2022-09-09T01:06:14;3.08;;;1.23;;
16385;SDS011;8302;51.154;4.456;2022-09-09T01:08:48;2.00;;;1.15;;
16385;SDS011;8302;51.154;4.456;2022-09-09T01:11:21;2.50;;;1.38;;
16385;SDS011;8302;51.154;4.456;2022-09-09T01:13:49;3.00;;;1.30;;
16385;SDS011;8302;51.154;4.456;2022-09-09T01:16:20;2.67;;;1.30;;
16385;SDS011;8302;51.154;4.456;2022-09-09T01:18:49;2.80;;;1.25;;
16385;SDS011;8302;51.154;4.456;2022-09-09T01:21:22;2.95;;;1.23;;
16385;SDS011;8302;51.154;4.456;2022-09-09T01:27:13;3.28;;;1.38;;
16385;SDS011;8302;51.154;4.456;2022-09-09T01:29:43;2.83;;;1.10;;
16385;SDS011;8302;51.154;4.456;2022-09-09T01:34:57;5.28;;;0.98;;
16385;SDS011;8302;51.154;4.456;2022-09-09T01:37:25;1.90;;;0.95;;
16385;SDS011;8302;51.154;4.456;2022-09-09T01:39:53;2.38;;;1.10;;
16385;SDS011;8302;51.154;4.456;2022-09-09T01:42:22;2.22;;;0.85;;
16385;SDS011;8302;51.154;4.456;2022-09-09T01:44:49;3.42;;;1.10;;
16385;SDS011;8302;51.154;4.456;2022-09-09T01:47:17;2.60;;;1.10;;
16385;SDS011;8302;51.154;4.456;2022-09-09T01:50:11;1.50;;;0.77;;
16385;SDS011;8302;51.154;4.456;2022-09-09T01:52:41;2.58;;;0.90;;
16385;SDS011;8302;51.154;4.456;2022-09-09T01:55:12;3.25;;;0.90;;
16385;SDS011;8302;51.154;4.456;2022-09-09T01:57:44;4.25;;;1.08;;
16385;SDS011;8302;51.154;4.456;2022-09-09T02:00:17;5.57;;;1.08;;
16385;SDS011;8302;51.154;4.456;2022-09-09T02:02:55;5.13;;;0.80;;
16385;SDS011;8302;51.154;4.456;2022-09-09T02:05:35;1.92;;;0.70;;
16385;SDS011;8302;51.154;4.456;2022-09-09T02:08:09;4.20;;;1.20;;
16385;SDS011;8302;51.154;4.456;2022-09-09T02:10:50;1.33;;;1.00;;
16385;SDS011;8302;51.154;4.456;2022-09-09T02:13:35;0.98;;;0.60;;
16385;SDS011;8302;51.154;4.456;2022-09-09T02:16:08;2.60;;;0.98;;
16385;SDS011;8302;51.154;4.456;2022-09-09T02:18:37;3.90;;;1.15;;
16385;SDS011;8302;51.154;4.456;2022-09-09T02:21:07;3.95;;;1.13;;
16385;SDS011;8302;51.154;4.456;2022-09-09T02:23:38;2.70;;;1.38;;
16385;SDS011;8302;51.154;4.456;2022-09-09T02:26:10;3.97;;;1.30;;
16385;SDS011;8302;51.154;4.456;2022-09-09T02:28:41;4.55;;;1.20;;
16385;SDS011;8302;51.154;4.456;2022-09-09T02:31:10;2.63;;;1.20;;
16385;SDS011;8302;51.154;4.456;2022-09-09T02:33:41;5.95;;;1.42;;
16385;SDS011;8302;51.154;4.456;2022-09-09T02:36:10;3.78;;;1.20;;
16385;SDS011;8302;51.154;4.456;2022-09-09T02:38:41;1.73;;;0.93;;
16385;SDS011;8302;51.154;4.456;2022-09-09T02:41:14;3.15;;;0.90;;
16385;SDS011;8302;51.154;4.456;2022-09-09T02:43:43;4.93;;;1.30;;
16385;SDS011;8302;51.154;4.456;2022-09-09T02:46:19;4.10;;;1.10;;
16385;SDS011;8302;51.154;4.456;2022-09-09T02:48:51;2.20;;;1.02;;
16385;SDS011;8302;51.154;4.456;2022-09-09T02:51:27;3.28;;;1.20;;
16385;SDS011;8302;51.154;4.456;2022-09-09T02:53:59;1.35;;;0.90;;
16385;SDS011;8302;51.154;4.456;2022-09-09T02:56:30;6.13;;;1.30;;
16385;SDS011;8302;51.154;4.456;2022-09-09T02:59:04;3.80;;;1.25;;
16385;SDS011;8302;51.154;4.456;2022-09-09T03:01:34;2.13;;;0.85;;
16385;SDS011;8302;51.154;4.456;2022-09-09T03:04:03;3.88;;;0.93;;
16385;SDS011;8302;51.154;4.456;2022-09-09T03:06:31;5.20;;;0.98;;
16385;SDS011;8302;51.154;4.456;2022-09-09T03:09:08;3.53;;;0.82;;
16385;SDS011;8302;51.154;4.456;2022-09-09T03:11:37;2.72;;;1.00;;
16385;SDS011;8302;51.154;4.456;2022-09-09T03:14:07;4.07;;;1.33;;
16385;SDS011;8302;51.154;4.456;2022-09-09T03:16:38;3.15;;;1.15;;
16385;SDS011;8302;51.154;4.456;2022-09-09T03:19:06;3.67;;;1.00;;
16385;SDS011;8302;51.154;4.456;2022-09-09T03:21:34;4.13;;;1.08;;
16385;SDS011;8302;51.154;4.456;2022-09-09T03:24:02;2.92;;;1.17;;
16385;SDS011;8302;51.154;4.456;2022-09-09T03:26:30;5.60;;;1.60;;
16385;SDS011;8302;51.154;4.456;2022-09-09T03:28:59;2.90;;;1.30;;
16385;SDS011;8302;51.154;4.456;2022-09-09T03:31:30;4.50;;;1.27;;
16385;SDS011;8302;51.154;4.456;2022-09-09T03:33:58;4.32;;;1.20;;
16385;SDS011;8302;51.154;4.456;2022-09-09T03:36:29;6.80;;;1.20;;
16385;SDS011;8302;51.154;4.456;2022-09-09T03:38:57;2.15;;;0.75;;
16385;SDS011;8302;51.154;4.456;2022-09-09T03:41:28;3.28;;;1.13;;
16385;SDS011;8302;51.154;4.456;2022-09-09T03:43:55;3.63;;;0.85;;
16385;SDS011;8302;51.154;4.456;2022-09-09T03:46:27;4.50;;;0.63;;
16385;SDS011;8302;51.154;4.456;2022-09-09T03:48:56;2.63;;;0.70;;
16385;SDS011;8302;51.154;4.456;2022-09-09T03:51:23;4.28;;;0.68;;
16385;SDS011;8302;51.154;4.456;2022-09-09T03:53:51;0.13;;;0.13;;
16385;SDS011;8302;51.154;4.456;2022-09-09T03:56:25;4.22;;;1.40;;
16385;SDS011;8302;51.154;4.456;2022-09-09T03:58:54;0.85;;;0.30;;
16385;SDS011;8302;51.154;4.456;2022-09-09T04:01:22;0.80;;;0.52;;
16385;SDS011;8302;51.154;4.456;2022-09-09T04:03:49;9.65;;;0.90;;
16385;SDS011;8302;51.154;4.456;2022-09-09T04:06:19;2.45;;;0.60;;
16385;SDS011;8302;51.154;4.456;2022-09-09T04:08:47;3.53;;;0.68;;
16385;SDS011;8302;51.154;4.456;2022-09-09T04:11:16;8.85;;;1.35;;
16385;SDS011;8302;51.154;4.456;2022-09-09T04:13:45;6.63;;;0.77;;
16385;SDS011;8302;51.154;4.456;2022-09-09T04:16:13;1.77;;;0.40;;
16385;SDS011;8302;51.154;4.456;2022-09-09T04:18:42;3.47;;;0.82;;
16385;SDS011;8302;51.154;4.456;2022-09-09T04:21:13;2.25;;;0.73;;
16385;SDS011;8302;51.154;4.456;2022-09-09T04:23:43;3.90;;;1.05;;
16385;SDS011;8302;51.154;4.456;2022-09-09T04:26:13;3.10;;;0.82;;
16385;SDS011;8302;51.154;4.456;2022-09-09T04:28:43;3.53;;;0.77;;
16385;SDS011;8302;51.154;4.456;2022-09-09T04:31:16;4.22;;;1.00;;
16385;SDS011;8302;51.154;4.456;2022-09-09T04:33:45;2.35;;;0.22;;
16385;SDS011;8302;51.154;4.456;2022-09-09T04:36:15;2.97;;;0.85;;
16385;SDS011;8302;51.154;4.456;2022-09-09T04:38:44;1.15;;;0.38;;
16385;SDS011;8302;51.154;4.456;2022-09-09T04:41:13;5.18;;;0.85;;
16385;SDS011;8302;51.154;4.456;2022-09-09T04:43:43;2.85;;;0.80;;
16385;SDS011;8302;51.154;4.456;2022-09-09T04:46:13;1.17;;;0.35;;
16385;SDS011;8302;51.154;4.456;2022-09-09T04:48:43;2.47;;;0.88;;
16385;SDS011;8302;51.154;4.456;2022-09-09T04:51:12;4.38;;;0.70;;
16385;SDS011;8302;51.154;4.456;2022-09-09T04:53:42;3.47;;;0.85;;
16385;SDS011;8302;51.154;4.456;2022-09-09T04:56:13;2.35;;;0.82;;
16385;SDS011;8302;51.154;4.456;2022-09-09T04:58:52;2.92;;;0.90;;
16385;SDS011;8302;51.154;4.456;2022-09-09T05:01:23;2.92;;;0.88;;
16385;SDS011;8302;51.154;4.456;2022-09-09T05:03:56;3.45;;;0.73;;
16385;SDS011;8302;51.154;4.456;2022-09-09T05:06:24;3.65;;;1.05;;
16385;SDS011;8302;51.154;4.456;2022-09-09T05:08:55;5.43;;;1.27;;
16385;SDS011;8302;51.154;4.456;2022-09-09T05:11:29;1.23;;;0.38;;
16385;SDS011;8302;51.154;4.456;2022-09-09T05:14:14;1.42;;;0.65;;
16385;SDS011;8302;51.154;4.456;2022-09-09T05:16:42;10.95;;;1.40;;
16385;SDS011;8302;51.154;4.456;2022-09-09T05:19:11;0.60;;;0.45;;
16385;SDS011;8302;51.154;4.456;2022-09-09T05:21:57;1.55;;;0.40;;
16385;SDS011;8302;51.154;4.456;2022-09-09T05:24:32;6.72;;;0.90;;
16385;SDS011;8302;51.154;4.456;2022-09-09T05:27:03;3.70;;;1.10;;
16385;SDS011;8302;51.154;4.456;2022-09-09T05:29:32;0.30;;;0.30;;
16385;SDS011;8302;51.154;4.456;2022-09-09T05:32:03;0.35;;;0.30;;
16385;SDS011;8302;51.154;4.456;2022-09-09T05:34:31;1.63;;;0.28;;
16385;SDS011;8302;51.154;4.456;2022-09-09T05:36:59;2.17;;;0.73;;
16385;SDS011;8302;51.154;4.456;2022-09-09T05:39:27;1.20;;;0.65;;
16385;SDS011;8302;51.154;4.456;2022-09-09T05:41:55;4.18;;;0.63;;
16385;SDS011;8302;51.154;4.456;2022-09-09T05:44:24;3.45;;;0.98;;
16385;SDS011;8302;51.154;4.456;2022-09-09T05:46:54;0.40;;;0.20;;
16385;SDS011;8302;51.154;4.456;2022-09-09T05:49:21;4.10;;;0.73;;
16385;SDS011;8302;51.154;4.456;2022-09-09T05:51:49;1.17;;;0.15;;
16385;SDS011;8302;51.154;4.456;2022-09-09T05:54:19;0.50;;;0.47;;
16385;SDS011;8302;51.154;4.456;2022-09-09T05:56:49;1.13;;;0.63;;
16385;SDS011;8302;51.154;4.456;2022-09-09T05:59:19;4.85;;;1.20;;
16385;SDS011;8302;51.154;4.456;2022-09-09T06:01:48;3.35;;;0.70;;
16385;SDS011;8302;51.154;4.456;2022-09-09T06:04:24;3.55;;;0.68;;
16385;SDS011;8302;51.154;4.456;2022-09-09T06:06:52;0.50;;;0.50;;
16385;SDS011;8302;51.154;4.456;2022-09-09T06:09:21;0.75;;;0.32;;
16385;SDS011;8302;51.154;4.456;2022-09-09T06:11:49;1.75;;;0.52;;
16385;SDS011;8302;51.154;4.456;2022-09-09T06:14:18;1.33;;;0.60;;
16385;SDS011;8302;51.154;4.456;2022-09-09T06:16:49;4.15;;;0.75;;
16385;SDS011;8302;51.154;4.456;2022-09-09T06:19:20;0.43;;;0.30;;
16385;SDS011;8302;51.154;4.456;2022-09-09T06:21:48;2.83;;;0.68;;
16385;SDS011;8302;51.154;4.456;2022-09-09T06:24:16;0.60;;;0.30;;
16385;SDS011;8302;51.154;4.456;2022-09-09T06:26:45;0.63;;;0.40;;
16385;SDS011;8302;51.154;4.456;2022-09-09T06:29:19;2.28;;;0.50;;
16385;SDS011;8302;51.154;4.456;2022-09-09T06:31:48;1.60;;;0.45;;
16385;SDS011;8302;51.154;4.456;2022-09-09T06:34:20;2.63;;;0.95;;
16385;SDS011;8302;51.154;4.456;2022-09-09T06:36:51;1.48;;;0.73;;
16385;SDS011;8302;51.154;4.456;2022-09-09T06:39:19;1.58;;;0.75;;
16385;SDS011;8302;51.154;4.456;2022-09-09T06:41:48;1.88;;;1.10;;
16385;SDS011;8302;51.154;4.456;2022-09-09T06:44:34;1.27;;;0.90;;
16385;SDS011;8302;51.154;4.456;2022-09-09T06:47:06;1.90;;;0.65;;
16385;SDS011;8302;51.154;4.456;2022-09-09T06:49:34;1.67;;;0.80;;
16385;SDS011;8302;51.154;4.456;2022-09-09T06:52:05;1.88;;;1.00;;
16385;SDS011;8302;51.154;4.456;2022-09-09T06:54:36;1.55;;;0.90;;
16385;SDS011;8302;51.154;4.456;2022-09-09T06:57:04;3.80;;;1.30;;
16385;SDS011;8302;51.154;4.456;2022-09-09T06:59:53;1.88;;;0.82;;
16385;SDS011;8302;51.154;4.456;2022-09-09T07:02:23;3.72;;;0.77;;
16385;SDS011;8302;51.154;4.456;2022-09-09T07:04:51;3.28;;;1.20;;
16385;SDS011;8302;51.154;4.456;2022-09-09T07:07:19;1.30;;;0.70;;
16385;SDS011;8302;51.154;4.456;2022-09-09T07:09:47;3.38;;;0.90;;
16385;SDS011;8302;51.154;4.456;2022-09-09T07:12:15;3.78;;;1.13;;
16385;SDS011;8302;51.154;4.456;2022-09-09T07:14:50;3.53;;;1.25;;
16385;SDS011;8302;51.154;4.456;2022-09-09T07:17:18;3.65;;;1.10;;
16385;SDS011;8302;51.154;4.456;2022-09-09T07:19:47;2.60;;;0.90;;
16385;SDS011;8302;51.154;4.456;2022-09-09T07:22:16;2.10;;;0.77;;
16385;SDS011;8302;51.154;4.456;2022-09-09T07:24:44;1.42;;;0.80;;
16385;SDS011;8302;51.154;4.456;2022-09-09T07:27:13;1.73;;;0.90;;
16385;SDS011;8302;51.154;4.456;2022-09-09T07:29:42;2.42;;;0.80;;
16385;SDS011;8302;51.154;4.456;2022-09-09T07:32:09;1.73;;;0.88;;
16385;SDS011;8302;51.154;4.456;2022-09-09T07:34:37;3.13;;;1.20;;
16385;SDS011;8302;51.154;4.456;2022-09-09T07:37:06;1.30;;;0.95;;
16385;SDS011;8302;51.154;4.456;2022-09-09T07:39:35;2.65;;;1.08;;
16385;SDS011;8302;51.154;4.456;2022-09-09T07:42:03;1.60;;;0.73;;
16385;SDS011;8302;51.154;4.456;2022-09-09T07:44:31;3.70;;;0.80;;
16385;SDS011;8302;51.154;4.456;2022-09-09T07:47:08;2.33;;;1.02;;
16385;SDS011;8302;51.154;4.456;2022-09-09T07:49:41;2.63;;;1.23;;
16385;SDS011;8302;51.154;4.456;2022-09-09T07:52:10;3.67;;;0.93;;
16385;SDS011;8302;51.154;4.456;2022-09-09T07:54:45;3.13;;;0.70;;
16385;SDS011;8302;51.154;4.456;2022-09-09T07:57:13;1.23;;;0.82;;
16385;SDS011;8302;51.154;4.456;2022-09-09T07:59:42;2.45;;;0.90;;
16385;SDS011;8302;51.154;4.456;2022-09-09T08:02:12;3.47;;;0.90;;
16385;SDS011;8302;51.154;4.456;2022-09-09T08:04:43;1.42;;;0.90;;
16385;SDS011;8302;51.154;4.456;2022-09-09T08:07:12;1.77;;;0.90;;
16385;SDS011;8302;51.154;4.456;2022-09-09T08:09:46;3.95;;;1.17;;
16385;SDS011;8302;51.154;4.456;2022-09-09T08:12:20;4.25;;;1.20;;
16385;SDS011;8302;51.154;4.456;2022-09-09T08:14:48;1.90;;;1.00;;
16385;SDS011;8302;51.154;4.456;2022-09-09T08:17:16;0.60;;;0.55;;
16385;SDS011;8302;51.154;4.456;2022-09-09T08:19:43;3.58;;;1.05;;
16385;SDS011;8302;51.154;4.456;2022-09-09T08:22:20;2.20;;;0.85;;
16385;SDS011;8302;51.154;4.456;2022-09-09T08:24:49;1.83;;;0.80;;
16385;SDS011;8302;51.154;4.456;2022-09-09T08:27:17;2.05;;;0.70;;
16385;SDS011;8302;51.154;4.456;2022-09-09T08:29:45;2.35;;;0.90;;
16385;SDS011;8302;51.154;4.456;2022-09-09T08:32:13;2.58;;;0.90;;
16385;SDS011;8302;51.154;4.456;2022-09-09T08:34:41;0.90;;;0.35;;
16385;SDS011;8302;51.154;4.456;2022-09-09T08:37:16;0.63;;;0.55;;
16385;SDS011;8302;51.154;4.456;2022-09-09T08:39:45;0.25;;;0.25;;
16385;SDS011;8302;51.154;4.456;2022-09-09T08:45:18;0.93;;;0.60;;
16385;SDS011;8302;51.154;4.456;2022-09-09T08:47:53;1.73;;;0.60;;
16385;SDS011;8302;51.154;4.456;2022-09-09T08:50:24;1.17;;;0.70;;
16385;SDS011;8302;51.154;4.456;2022-09-09T08:52:59;2.85;;;0.43;;
16385;SDS011;8302;51.154;4.456;2022-09-09T08:55:35;1.00;;;0.60;;
16385;SDS011;8302;51.154;4.456;2022-09-09T08:58:08;3.97;;;1.00;;
16385;SDS011;8302;51.154;4.456;2022-09-09T09:00:39;1.05;;;0.65;;
16385;SDS011;8302;51.154;4.456;2022-09-09T09:03:12;0.32;;;0.32;;
16385;SDS011;8302;51.154;4.456;2022-09-09T09:05:43;1.15;;;0.60;;
16385;SDS011;8302;51.154;4.456;2022-09-09T09:08:15;2.83;;;0.52;;
16385;SDS011;8302;51.154;4.456;2022-09-09T09:10:48;2.42;;;0.47;;
16385;SDS011;8302;51.154;4.456;2022-09-09T09:13:21;0.60;;;0.40;;
16385;SDS011;8302;51.154;4.456;2022-09-09T09:15:57;0.82;;;0.70;;
16385;SDS011;8302;51.154;4.456;2022-09-09T09:18:26;1.00;;;0.43;;
16385;SDS011;8302;51.154;4.456;2022-09-09T09:20:56;1.65;;;0.65;;
16385;SDS011;8302;51.154;4.456;2022-09-09T09:23:30;1.17;;;0.73;;
16385;SDS011;8302;51.154;4.456;2022-09-09T09:26:06;0.65;;;0.35;;
16385;SDS011;8302;51.154;4.456;2022-09-09T09:28:35;1.25;;;0.75;;
16385;SDS011;8302;51.154;4.456;2022-09-09T09:31:11;0.95;;;0.80;;
16385;SDS011;8302;51.154;4.456;2022-09-09T09:33:46;0.10;;;0.10;;
16385;SDS011;8302;51.154;4.456;2022-09-09T09:36:14;0.73;;;0.40;;
16385;SDS011;8302;51.154;4.456;2022-09-09T09:38:51;1.98;;;0.85;;
16385;SDS011;8302;51.154;4.456;2022-09-09T09:41:42;1.45;;;0.80;;
16385;SDS011;8302;51.154;4.456;2022-09-09T09:44:21;0.63;;;0.30;;
16385;SDS011;8302;51.154;4.456;2022-09-09T09:46:49;0.63;;;0.50;;
16385;SDS011;8302;51.154;4.456;2022-09-09T09:49:16;0.20;;;0.20;;
16385;SDS011;8302;51.154;4.456;2022-09-09T09:51:44;1.70;;;1.02;;
16385;SDS011;8302;51.154;4.456;2022-09-09T09:54:14;1.08;;;0.50;;
16385;SDS011;8302;51.154;4.456;2022-09-09T09:56:52;0.60;;;0.47;;
16385;SDS011;8302;51.154;4.456;2022-09-09T09:59:20;0.30;;;0.30;;
16385;SDS011;8302;51.154;4.456;2022-09-09T10:02:14;1.20;;;0.55;;
16385;SDS011;8302;51.154;4.456;2022-09-09T10:04:45;1.08;;;0.50;;
16385;SDS011;8302;51.154;4.456;2022-09-09T10:07:17;1.10;;;0.22;;
16385;SDS011;8302;51.154;4.456;2022-09-09T10:09:45;2.42;;;0.57;;
16385;SDS011;8302;51.154;4.456;2022-09-09T10:12:18;3.05;;;0.55;;
16385;SDS011;8302;51.154;4.456;2022-09-09T10:14:51;2.30;;;0.55;;
16385;SDS011;8302;51.154;4.456;2022-09-09T10:17:22;1.33;;;0.80;;
16385;SDS011;8302;51.154;4.456;2022-09-09T10:19:56;2.83;;;0.90;;
16385;SDS011;8302;51.154;4.456;2022-09-09T10:22:26;1.13;;;0.60;;
16385;SDS011;8302;51.154;4.456;2022-09-09T10:27:41;0.60;;;0.35;;
16385;SDS011;8302;51.154;4.456;2022-09-09T10:30:14;4.47;;;0.40;;
16385;SDS011;8302;51.154;4.456;2022-09-09T10:32:45;1.50;;;0.52;;
16385;SDS011;8302;51.154;4.456;2022-09-09T10:38:01;0.60;;;0.40;;
16385;SDS011;8302;51.154;4.456;2022-09-09T10:40:31;1.02;;;0.50;;
16385;SDS011;8302;51.154;4.456;2022-09-09T10:43:03;4.78;;;0.93;;
16385;SDS011;8302;51.154;4.456;2022-09-09T10:45:35;0.73;;;0.73;;
16385;SDS011;8302;51.154;4.456;2022-09-09T10:48:21;2.28;;;0.50;;
16385;SDS011;8302;51.154;4.456;2022-09-09T10:50:53;3.95;;;0.63;;
16385;SDS011;8302;51.154;4.456;2022-09-09T10:53:34;1.08;;;0.57;;
16385;SDS011;8302;51.154;4.456;2022-09-09T10:56:04;0.85;;;0.40;;
16385;SDS011;8302;51.154;4.456;2022-09-09T10:58:38;0.35;;;0.35;;
16385;SDS011;8302;51.154;4.456;2022-09-09T11:01:09;1.05;;;0.40;;
16385;SDS011;8302;51.154;4.456;2022-09-09T11:03:38;1.55;;;0.50;;
16385;SDS011;8302;51.154;4.456;2022-09-09T11:06:09;1.92;;;0.68;;
16385;SDS011;8302;51.154;4.456;2022-09-09T11:08:40;1.38;;;0.65;;
16385;SDS011;8302;51.154;4.456;2022-09-09T11:11:09;0.35;;;0.35;;
16385;SDS011;8302;51.154;4.456;2022-09-09T11:13:39;0.47;;;0.38;;
16385;SDS011;8302;51.154;4.456;2022-09-09T11:16:14;0.40;;;0.35;;
16385;SDS011;8302;51.154;4.456;2022-09-09T11:18:43;1.40;;;0.40;;
16385;SDS011;8302;51.154;4.456;2022-09-09T11:21:14;0.35;;;0.35;;
16385;SDS011;8302;51.154;4.456;2022-09-09T11:23:44;0.40;;;0.40;;
16385;SDS011;8302;51.154;4.456;2022-09-09T11:26:17;1.17;;;0.43;;
16385;SDS011;8302;51.154;4.456;2022-09-09T11:28:51;0.77;;;0.70;;
16385;SDS011;8302;51.154;4.456;2022-09-09T11:31:34;1.98;;;0.70;;
16385;SDS011;8302;51.154;4.456;2022-09-09T11:34:13;1.95;;;0.30;;
16385;SDS011;8302;51.154;4.456;2022-09-09T11:36:52;0.20;;;0.20;;
16385;SDS011;8302;51.154;4.456;2022-09-09T11:39:35;4.30;;;0.82;;
16385;SDS011;8302;51.154;4.456;2022-09-09T11:42:12;0.25;;;0.25;;
16385;SDS011;8302;51.154;4.456;2022-09-09T11:44:44;0.65;;;0.30;;
16385;SDS011;8302;51.154;4.456;2022-09-09T11:47:23;1.02;;;0.50;;
16385;SDS011;8302;51.154;4.456;2022-09-09T11:49:55;0.90;;;0.63;;
16385;SDS011;8302;51.154;4.456;2022-09-09T11:52:36;1.00;;;0.45;;
16385;SDS011;8302;51.154;4.456;2022-09-09T11:55:08;1.05;;;0.47;;
16385;SDS011;8302;51.154;4.456;2022-09-09T11:57:37;0.10;;;0.10;;
16385;SDS011;8302;51.154;4.456;2022-09-09T12:00:27;0.10;;;0.10;;
16385;SDS011;8302;51.154;4.456;2022-09-09T12:02:55;1.33;;;0.50;;
16385;SDS011;8302;51.154;4.456;2022-09-09T12:05:22;0.85;;;0.40;;
16385;SDS011;8302;51.154;4.456;2022-09-09T12:07:51;0.25;;;0.25;;
16385;SDS011;8302;51.154;4.456;2022-09-09T12:10:20;1.17;;;0.40;;
16385;SDS011;8302;51.154;4.456;2022-09-09T12:12:49;0.20;;;0.20;;
16385;SDS011;8302;51.154;4.456;2022-09-09T12:15:21;0.22;;;0.22;;
16385;SDS011;8302;51.154;4.456;2022-09-09T12:17:49;1.85;;;0.50;;
16385;SDS011;8302;51.154;4.456;2022-09-09T12:20:18;0.52;;;0.52;;
16385;SDS011;8302;51.154;4.456;2022-09-09T12:25:37;0.95;;;0.50;;
16385;SDS011;8302;51.154;4.456;2022-09-09T12:28:09;0.40;;;0.40;;
16385;SDS011;8302;51.154;4.456;2022-09-09T12:30:41;0.57;;;0.57;;
16385;SDS011;8302;51.154;4.456;2022-09-09T12:33:12;1.02;;;0.30;;
16385;SDS011;8302;51.154;4.456;2022-09-09T12:35:40;0.50;;;0.32;;
16385;SDS011;8302;51.154;4.456;2022-09-09T12:38:10;4.05;;;0.63;;
16385;SDS011;8302;51.154;4.456;2022-09-09T12:40:41;0.32;;;0.30;;
16385;SDS011;8302;51.154;4.456;2022-09-09T12:43:17;1.92;;;0.70;;
16385;SDS011;8302;51.154;4.456;2022-09-09T12:45:47;0.25;;;0.25;;
16385;SDS011;8302;51.154;4.456;2022-09-09T12:48:16;0.77;;;0.77;;
16385;SDS011;8302;51.154;4.456;2022-09-09T12:50:46;0.50;;;0.30;;
16385;SDS011;8302;51.154;4.456;2022-09-09T12:53:16;1.00;;;0.40;;
16385;SDS011;8302;51.154;4.456;2022-09-09T12:55:52;1.00;;;0.50;;
16385;SDS011;8302;51.154;4.456;2022-09-09T12:58:20;0.20;;;0.20;;
16385;SDS011;8302;51.154;4.456;2022-09-09T13:00:52;0.77;;;0.50;;
16385;SDS011;8302;51.154;4.456;2022-09-09T13:03:22;1.65;;;0.82;;
16385;SDS011;8302;51.154;4.456;2022-09-09T13:05:51;0.45;;;0.45;;
16385;SDS011;8302;51.154;4.456;2022-09-09T13:08:19;0.55;;;0.55;;
16385;SDS011;8302;51.154;4.456;2022-09-09T13:10:47;1.13;;;0.43;;
16385;SDS011;8302;51.154;4.456;2022-09-09T13:13:27;0.57;;;0.20;;
16385;SDS011;8302;51.154;4.456;2022-09-09T13:15:58;0.30;;;0.30;;
16385;SDS011;8302;51.154;4.456;2022-09-09T13:18:27;1.30;;;0.70;;
16385;SDS011;8302;51.154;4.456;2022-09-09T13:20:55;0.50;;;0.40;;
16385;SDS011;8302;51.154;4.456;2022-09-09T13:23:25;0.70;;;0.43;;
16385;SDS011;8302;51.154;4.456;2022-09-09T13:25:54;0.32;;;0.30;;
16385;SDS011;8302;51.154;4.456;2022-09-09T13:28:22;3.05;;;0.20;;
16385;SDS011;8302;51.154;4.456;2022-09-09T13:30:58;0.30;;;0.30;;
16385;SDS011;8302;51.154;4.456;2022-09-09T13:33:30;0.47;;;0.47;;
16385;SDS011;8302;51.154;4.456;2022-09-09T13:35:59;0.30;;;0.30;;
16385;SDS011;8302;51.154;4.456;2022-09-09T13:38:29;0.40;;;0.40;;
16385;SDS011;8302;51.154;4.456;2022-09-09T13:40:58;1.75;;;0.60;;
16385;SDS011;8302;51.154;4.456;2022-09-09T13:43:28;0.20;;;0.20;;
16385;SDS011;8302;51.154;4.456;2022-09-09T13:45:59;1.02;;;0.45;;
16385;SDS011;8302;51.154;4.456;2022-09-09T13:48:27;1.67;;;0.60;;
16385;SDS011;8302;51.154;4.456;2022-09-09T13:50:57;2.40;;;0.75;;
16385;SDS011;8302;51.154;4.456;2022-09-09T13:53:25;0.30;;;0.30;;
16385;SDS011;8302;51.154;4.456;2022-09-09T13:55:52;0.40;;;0.30;;
16385;SDS011;8302;51.154;4.456;2022-09-09T13:58:20;1.25;;;0.82;;
16385;SDS011;8302;51.154;4.456;2022-09-09T14:00:49;0.47;;;0.20;;
16385;SDS011;8302;51.154;4.456;2022-09-09T14:03:18;0.20;;;0.20;;
16385;SDS011;8302;51.154;4.456;2022-09-09T14:05:46;0.75;;;0.60;;
16385;SDS011;8302;51.154;4.456;2022-09-09T14:08:21;0.25;;;0.25;;
16385;SDS011;8302;51.154;4.456;2022-09-09T14:10:49;0.30;;;0.30;;
16385;SDS011;8302;51.154;4.456;2022-09-09T14:13:16;0.35;;;0.25;;
16385;SDS011;8302;51.154;4.456;2022-09-09T14:15:44;1.55;;;0.52;;
16385;SDS011;8302;51.154;4.456;2022-09-09T14:18:12;0.22;;;0.22;;
16385;SDS011;8302;51.154;4.456;2022-09-09T14:20:42;1.65;;;0.43;;
16385;SDS011;8302;51.154;4.456;2022-09-09T14:23:11;2.67;;;0.60;;
16385;SDS011;8302;51.154;4.456;2022-09-09T14:25:40;0.35;;;0.35;;
16385;SDS011;8302;51.154;4.456;2022-09-09T14:28:09;1.67;;;0.55;;
16385;SDS011;8302;51.154;4.456;2022-09-09T14:30:37;0.63;;;0.60;;
16385;SDS011;8302;51.154;4.456;2022-09-09T14:33:05;0.10;;;0.10;;
16385;SDS011;8302;51.154;4.456;2022-09-09T14:35:32;0.30;;;0.30;;
16385;SDS011;8302;51.154;4.456;2022-09-09T14:38:02;0.30;;;0.30;;
16385;SDS011;8302;51.154;4.456;2022-09-09T14:40:30;2.83;;;0.88;;
16385;SDS011;8302;51.154;4.456;2022-09-09T14:42:57;1.38;;;0.60;;
16385;SDS011;8302;51.154;4.456;2022-09-09T14:45:25;0.35;;;0.35;;
16385;SDS011;8302;51.154;4.456;2022-09-09T14:47:53;1.48;;;0.50;;
16385;SDS011;8302;51.154;4.456;2022-09-09T14:50:21;0.75;;;0.63;;
16385;SDS011;8302;51.154;4.456;2022-09-09T14:52:49;2.15;;;0.60;;
16385;SDS011;8302;51.154;4.456;2022-09-09T14:55:19;0.10;;;0.10;;
16385;SDS011;8302;51.154;4.456;2022-09-09T14:57:47;0.40;;;0.30;;
16385;SDS011;8302;51.154;4.456;2022-09-09T15:00:15;0.52;;;0.35;;
16385;SDS011;8302;51.154;4.456;2022-09-09T15:02:43;0.30;;;0.30;;
16385;SDS011;8302;51.154;4.456;2022-09-09T15:05:11;0.20;;;0.20;;
16385;SDS011;8302;51.154;4.456;2022-09-09T15:07:38;5.68;;;0.50;;
16385;SDS011;8302;51.154;4.456;2022-09-09T15:10:06;1.02;;;0.38;;
16385;SDS011;8302;51.154;4.456;2022-09-09T15:12:35;0.20;;;0.20;;
16385;SDS011;8302;51.154;4.456;2022-09-09T15:15:05;1.00;;;0.50;;
16385;SDS011;8302;51.154;4.456;2022-09-09T15:17:32;3.22;;;0.63;;
16385;SDS011;8302;51.154;4.456;2022-09-09T15:20:00;1.50;;;0.50;;
16385;SDS011;8302;51.154;4.456;2022-09-09T15:22:29;0.52;;;0.20;;
16385;SDS011;8302;51.154;4.456;2022-09-09T15:24:56;0.95;;;0.60;;
16385;SDS011;8302;51.154;4.456;2022-09-09T15:27:24;2.05;;;0.52;;
16385;SDS011;8302;51.154;4.456;2022-09-09T15:29:53;0.43;;;0.30;;
16385;SDS011;8302;51.154;4.456;2022-09-09T15:32:21;0.20;;;0.20;;
16385;SDS011;8302;51.154;4.456;2022-09-09T15:34:49;0.35;;;0.20;;
16385;SDS011;8302;51.154;4.456;2022-09-09T15:37:17;1.98;;;0.77;;
16385;SDS011;8302;51.154;4.456;2022-09-09T15:39:45;1.17;;;0.60;;